Springtown, Texas
Current Conditions -  °F | °C
As of 12:15 PM on Sunday 25 Jan 2015 (Local Time) from KXBP Reporting Station
Clear Clear  
Wind Chill: 61°   Ceiling: Unl
Heat Index: 61°   Visibility: 10mi
Dew Point: 32°   Wind: 16mph
Humidity: 34%   Direction: 320°NW
Pressure: 30.1"   Gusts: 24mph
Location:  32.97°N, 97.68°W
Report Text: KXBP 251815Z AUTO 32014G21KT 10SM CLR 16/00 A3010 RMK AO2 T01600002
Loading
Personal Weather Stations






























Interactive Weather Map New forecast layout! Learn more

10-Day Weather Forecast

Advertisements
Track Severe Weather on mobile